Time;durP1;ratioP1;P1;durP2;ratioP2;P2;SDS_P1;SDS_P2;PMS_P1;PMS_P2;Temp;Humidity;BMP_temperature;BMP_pressure;BME280_temperature;BME280_humidity;BME280_pressure;Samples;Min_cycle;Max_cycle;Signal;HPM_P1;HPM_P2
2021/05/19 00:00:08;;;;;;;14.35;10.88;;;8.80;99.90;;;;;;12216348;28;20142;-77
2021/05/19 00:06:12;;;;;;;15.18;10.73;;;8.70;99.90;;;;;;12207741;28;20134;-77
2021/05/19 00:12:14;;;;;;;14.33;11.60;;;8.60;99.90;;;;;;12213296;28;20075;-77
2021/05/19 00:18:15;;;;;;;16.95;12.30;;;8.70;99.90;;;;;;12203972;28;20978;-77
2021/05/19 00:24:17;;;;;;;15.95;10.85;;;8.80;99.90;;;;;;12215692;28;20201;-77
2021/05/19 00:30:21;;;;;;;13.05;10.45;;;9.00;99.90;;;;;;12216681;28;20528;-77
2021/05/19 00:36:23;;;;;;;13.48;10.45;;;9.00;99.90;;;;;;12211090;28;20094;-78
2021/05/19 00:42:25;;;;;;;15.50;10.68;;;8.90;99.90;;;;;;12205692;28;20089;-78
2021/05/19 00:48:26;;;;;;;14.48;10.75;;;8.80;99.90;;;;;;12208099;28;20182;-77
2021/05/19 00:54:28;;;;;;;15.30;10.10;;;8.80;99.90;;;;;;12202777;28;20576;-78
2021/05/19 01:00:33;;;;;;;14.20;9.82;;;8.80;99.90;;;;;;12215981;28;20043;-78
2021/05/19 01:06:48;;;;;;;15.73;9.90;;;8.90;99.90;;;;;;12227823;28;20040;-77
2021/05/19 01:12:50;;;;;;;18.52;9.48;;;9.00;99.90;;;;;;12212718;28;20726;-78
2021/05/19 01:18:52;;;;;;;11.30;8.65;;;8.80;99.90;;;;;;12253069;28;20071;-77
2021/05/19 01:24:55;;;;;;;12.88;7.95;;;8.90;99.90;;;;;;12290807;28;20110;-77
2021/05/19 01:30:56;;;;;;;11.55;7.63;;;8.80;99.90;;;;;;12229910;28;20654;-77
2021/05/19 01:36:58;;;;;;;10.60;7.80;;;8.70;99.90;;;;;;12212127;28;20095;-77
2021/05/19 01:43:00;;;;;;;9.13;7.22;;;8.80;99.90;;;;;;12214545;28;20075;-77
2021/05/19 01:49:03;;;;;;;13.07;8.23;;;8.50;99.90;;;;;;12213776;28;20481;-76
2021/05/19 01:55:06;;;;;;;10.05;6.97;;;8.40;99.90;;;;;;12213415;28;20135;-77
2021/05/19 02:01:08;;;;;;;9.43;7.05;;;8.40;99.90;;;;;;12204768;28;20052;-78
2021/05/19 02:07:10;;;;;;;10.63;7.43;;;8.20;99.90;;;;;;12217033;28;20082;-77
2021/05/19 02:13:12;;;;;;;11.13;7.07;;;8.10;99.90;;;;;;12207143;28;20122;-77
2021/05/19 02:19:15;;;;;;;9.20;6.60;;;8.00;99.90;;;;;;12204586;28;20055;-77
2021/05/19 02:25:18;;;;;;;7.97;5.72;;;7.90;99.90;;;;;;12202496;28;20068;-77
2021/05/19 02:31:20;;;;;;;8.25;6.22;;;7.80;99.90;;;;;;12203879;28;20407;-77
2021/05/19 02:37:22;;;;;;;10.68;7.72;;;7.80;99.90;;;;;;12206064;28;20255;-78
2021/05/19 02:43:24;;;;;;;12.25;7.68;;;7.60;99.90;;;;;;12200064;28;20087;-78
2021/05/19 02:49:26;;;;;;;12.10;8.35;;;7.60;99.90;;;;;;12210133;28;20063;-77
2021/05/19 02:55:31;;;;;;;12.60;8.57;;;7.60;99.90;;;;;;12212190;28;20125;-77
2021/05/19 03:01:33;;;;;;;10.60;8.70;;;7.60;99.90;;;;;;12206693;28;20155;-77
2021/05/19 03:07:34;;;;;;;11.63;8.57;;;7.50;99.90;;;;;;12209448;28;20051;-78
2021/05/19 03:13:36;;;;;;;11.57;8.50;;;7.60;99.90;;;;;;12199430;28;20212;-77
2021/05/19 03:19:38;;;;;;;12.05;8.48;;;7.50;99.90;;;;;;12210821;28;20150;-78
2021/05/19 03:25:40;;;;;;;13.52;9.43;;;7.50;99.90;;;;;;12210530;28;20507;-77
2021/05/19 03:31:42;;;;;;;12.77;9.95;;;7.50;99.90;;;;;;12204439;28;20055;-78
2021/05/19 03:37:45;;;;;;;14.18;9.63;;;7.50;99.90;;;;;;12209203;28;20140;-78
2021/05/19 03:43:46;;;;;;;16.48;10.90;;;7.50;99.90;;;;;;12202970;28;20655;-77
2021/05/19 03:49:49;;;;;;;15.70;10.38;;;7.50;99.90;;;;;;12215267;28;20535;-78
2021/05/19 03:55:51;;;;;;;16.08;10.70;;;7.40;99.90;;;;;;12199147;28;20173;-78
2021/05/19 04:01:53;;;;;;;18.48;12.13;;;7.50;99.90;;;;;;12204545;28;20683;-78
2021/05/19 04:07:56;;;;;;;15.52;11.95;;;7.50;99.90;;;;;;12206559;28;20060;-77
2021/05/19 04:13:58;;;;;;;14.63;12.02;;;7.60;99.90;;;;;;12196825;28;20075;-77
2021/05/19 04:20:00;;;;;;;18.13;12.52;;;7.70;99.90;;;;;;12206517;28;20075;-78
2021/05/19 04:26:02;;;;;;;15.55;12.00;;;7.80;99.90;;;;;;12202167;28;20615;-78
2021/05/19 04:32:04;;;;;;;16.70;12.45;;;7.90;99.90;;;;;;12208581;28;20064;-78
2021/05/19 04:38:06;;;;;;;16.10;12.38;;;8.00;99.90;;;;;;12203491;28;20191;-78
2021/05/19 04:44:08;;;;;;;17.70;13.45;;;8.10;99.90;;;;;;12205581;28;20056;-78
2021/05/19 04:50:11;;;;;;;19.80;14.40;;;8.20;99.90;;;;;;12212355;28;20043;-78
2021/05/19 04:56:13;;;;;;;20.83;15.25;;;8.30;99.90;;;;;;12206545;28;20139;-78
2021/05/19 05:02:14;;;;;;;19.58;15.52;;;8.70;99.90;;;;;;12217443;28;20060;-78
2021/05/19 05:08:16;;;;;;;19.48;14.75;;;9.00;99.90;;;;;;12212485;28;20052;-78
2021/05/19 05:14:18;;;;;;;20.27;15.23;;;9.20;99.90;;;;;;12217266;28;20051;-78
2021/05/19 05:20:21;;;;;;;20.70;16.33;;;9.30;99.90;;;;;;12222255;28;20408;-78
2021/05/19 05:26:23;;;;;;;22.00;16.60;;;9.40;99.90;;;;;;12205872;28;20043;-78
2021/05/19 05:32:25;;;;;;;21.50;16.67;;;9.60;99.90;;;;;;12208845;28;20127;-78
2021/05/19 05:38:27;;;;;;;19.38;15.65;;;9.50;99.90;;;;;;12209690;28;20091;-78
2021/05/19 05:44:29;;;;;;;24.25;16.55;;;9.50;99.90;;;;;;12203544;28;20546;-78
2021/05/19 05:50:31;;;;;;;21.58;16.55;;;9.50;99.90;;;;;;12201827;28;20051;-78
2021/05/19 05:56:33;;;;;;;22.05;16.40;;;9.40;99.90;;;;;;12209403;28;20166;-80
2021/05/19 06:02:35;;;;;;;21.10;16.88;;;9.50;99.90;;;;;;12192477;28;20062;-78
2021/05/19 06:08:37;;;;;;;27.02;18.20;;;9.80;99.90;;;;;;12204655;28;20139;-78
2021/05/19 06:14:39;;;;;;;29.33;19.13;;;9.90;99.90;;;;;;12205648;28;20051;-78
2021/05/19 06:20:41;;;;;;;21.15;16.17;;;10.00;99.90;;;;;;12194595;28;20048;-78
2021/05/19 06:26:43;;;;;;;17.60;14.85;;;10.10;99.90;;;;;;12200641;28;20052;-79
2021/05/19 06:32:45;;;;;;;17.38;13.88;;;10.50;99.90;;;;;;12199110;28;20047;-78
2021/05/19 06:38:47;;;;;;;20.13;14.15;;;10.40;99.90;;;;;;12210388;28;20410;-79
2021/05/19 06:44:49;;;;;;;18.00;13.68;;;10.30;99.90;;;;;;12205297;28;20059;-79
2021/05/19 06:50:51;;;;;;;19.30;13.80;;;10.70;99.90;;;;;;12203352;28;20079;-79
2021/05/19 06:56:52;;;;;;;17.33;11.85;;;10.70;99.90;;;;;;12201651;28;20467;-79
2021/05/19 07:02:54;;;;;;;14.57;10.85;;;10.70;99.90;;;;;;12203582;28;20064;-79
2021/05/19 07:08:56;;;;;;;14.88;10.77;;;10.90;99.90;;;;;;12202598;28;20406;-78
2021/05/19 07:15:03;;;;;;;12.60;10.07;;;11.30;99.90;;;;;;12194544;28;20051;-78
2021/05/19 07:21:06;;;;;;;14.50;10.63;;;11.30;99.90;;;;;;12203721;28;20512;-79
2021/05/19 07:27:08;;;;;;;15.70;11.90;;;11.50;99.90;;;;;;12203427;28;20047;-78
2021/05/19 07:33:12;;;;;;;14.55;11.57;;;11.60;99.90;;;;;;12198507;28;20040;-79
2021/05/19 07:39:14;;;;;;;14.70;11.48;;;11.40;99.90;;;;;;12200948;28;20135;-78
2021/05/19 07:45:17;;;;;;;14.48;11.38;;;11.60;99.90;;;;;;12200322;28;20083;-79
2021/05/19 07:51:17;;;;;;;15.60;10.35;;;11.50;99.90;;;;;;12252465;28;20039;-79
2021/05/19 07:57:23;;;;;;;15.48;11.60;;;11.50;99.90;;;;;;12234463;28;20076;-78
2021/05/19 08:03:23;;;;;;;15.48;11.95;;;12.00;99.90;;;;;;12197976;28;20119;-78
2021/05/19 08:09:24;;;;;;;16.30;11.30;;;12.00;99.90;;;;;;12211421;28;20966;-78
2021/05/19 08:15:24;;;;;;;16.33;11.45;;;12.40;99.90;;;;;;12205006;28;20035;-79
2021/05/19 08:21:25;;;;;;;12.90;10.00;;;12.30;99.90;;;;;;12203032;28;20491;-78
2021/05/19 08:27:27;;;;;;;13.38;10.18;;;12.50;99.90;;;;;;12205653;28;20094;-79
2021/05/19 08:33:31;;;;;;;14.90;9.90;;;12.50;99.90;;;;;;12198930;28;20522;-79
2021/05/19 08:39:33;;;;;;;16.00;10.10;;;12.80;99.90;;;;;;12209785;28;20131;-79
2021/05/19 08:45:34;;;;;;;11.85;9.80;;;13.20;99.90;;;;;;12208960;28;20106;-79
2021/05/19 08:51:37;;;;;;;13.13;9.85;;;13.80;99.90;;;;;;12216907;28;20058;-79
2021/05/19 08:57:41;;;;;;;13.65;9.85;;;13.80;99.90;;;;;;12199289;28;20504;-79
2021/05/19 09:03:43;;;;;;;13.53;10.27;;;13.90;99.90;;;;;;12206134;28;20071;-79
2021/05/19 09:09:45;;;;;;;11.98;8.77;;;13.90;99.90;;;;;;12207651;28;20152;-79
2021/05/19 09:15:49;;;;;;;13.15;9.50;;;14.20;99.90;;;;;;12200910;28;20206;-79
2021/05/19 09:21:52;;;;;;;14.73;11.43;;;14.50;99.90;;;;;;12200964;28;20078;-79
2021/05/19 09:27:57;;;;;;;15.18;12.20;;;14.20;99.90;;;;;;12224152;28;20313;-80
2021/05/19 09:33:59;;;;;;;15.88;12.13;;;14.50;99.90;;;;;;12210840;28;20129;-79
2021/05/19 09:40:12;;;;;;;13.88;11.50;;;14.40;99.90;;;;;;12208802;28;20127;-79
2021/05/19 09:46:21;;;;;;;17.20;12.35;;;14.30;99.90;;;;;;12210345;28;20083;-80
2021/05/19 09:52:23;;;;;;;13.20;10.27;;;14.30;99.90;;;;;;12204016;28;20090;-79
2021/05/19 09:58:36;;;;;;;13.65;8.73;;;14.40;99.90;;;;;;12213481;28;20462;-80
2021/05/19 10:04:43;;;;;;;11.07;8.00;;;14.40;99.90;;;;;;12171361;28;20059;-80
2021/05/19 10:10:45;;;;;;;10.95;8.18;;;14.40;99.90;;;;;;12149420;29;20135;-80
2021/05/19 10:16:50;;;;;;;16.17;8.95;;;14.30;99.90;;;;;;12151571;29;20191;-80
2021/05/19 10:22:52;;;;;;;10.43;7.80;;;14.10;99.90;;;;;;12174017;28;20142;-80
2021/05/19 10:28:54;;;;;;;11.48;7.72;;;14.80;99.90;;;;;;12197823;29;20067;-80
2021/05/19 10:35:20;;;;;;;10.38;8.00;;;15.40;99.90;;;;;;12200526;28;20089;-79
2021/05/19 10:41:38;;;;;;;12.77;5.95;;;15.80;99.90;;;;;;12184838;28;20074;-79
2021/05/19 10:47:45;;;;;;;7.90;4.80;;;15.50;99.90;;;;;;12176016;28;20055;-80
2021/05/19 11:00:25;;;;;;;12.30;7.60;;;14.20;99.90;;;;;;12194165;28;20067;-80
2021/05/19 11:06:26;;;;;;;10.20;7.60;;;13.50;99.90;;;;;;12207702;28;20877;-80
2021/05/19 11:12:38;;;;;;;10.35;6.40;;;12.80;99.90;;;;;;12207187;28;20520;-80
2021/05/19 11:24:55;;;;;;;9.87;7.50;;;12.40;99.90;;;;;;12199497;28;20067;-80
2021/05/19 11:31:15;;;;;;;11.80;7.97;;;11.90;99.90;;;;;;12213321;28;20311;-79
2021/05/19 11:37:19;;;;;;;13.88;8.93;;;10.90;99.90;;;;;;12203299;28;20391;-79
2021/05/19 11:43:21;;;;;;;14.32;11.15;;;11.00;99.90;;;;;;12212087;28;20488;-78
2021/05/19 11:49:23;;;;;;;17.02;13.43;;;11.50;99.90;;;;;;12217338;28;20040;-78
2021/05/19 11:55:38;;;;;;;16.33;13.23;;;13.30;99.90;;;;;;12159021;28;20681;-79
2021/05/19 12:01:53;;;;;;;16.60;12.98;;;13.40;99.90;;;;;;12147201;29;20139;-79
2021/05/19 12:07:59;;;;;;;18.25;16.17;;;12.80;99.90;;;;;;12151532;28;20355;-78
2021/05/19 12:14:04;;;;;;;18.05;15.70;;;12.60;99.90;;;;;;12186002;29;20089;-79
2021/05/19 12:20:19;;;;;;;14.32;12.77;;;13.30;99.90;;;;;;12204978;28;21222;-78
2021/05/19 12:26:24;;;;;;;17.85;14.38;;;13.80;99.90;;;;;;12172187;28;20122;-79
2021/05/19 12:32:28;;;;;;;19.10;14.90;;;13.30;99.90;;;;;;12179642;28;20043;-78
2021/05/19 12:38:47;;;;;;;14.20;12.02;;;13.80;99.90;;;;;;12209983;28;20059;-79
2021/05/19 12:44:58;;;;;;;16.20;11.45;;;14.30;99.90;;;;;;12211985;28;20824;-78
2021/05/19 12:51:01;;;;;;;16.52;12.23;;;13.80;99.90;;;;;;12261240;28;20060;-77
2021/05/19 12:57:11;;;;;;;14.25;11.48;;;13.50;99.90;;;;;;12213798;28;20175;-79
2021/05/19 13:03:34;;;;;;;12.75;9.63;;;14.60;99.90;;;;;;12194258;28;20113;-78
2021/05/19 13:09:37;;;;;;;10.02;6.20;;;14.90;99.90;;;;;;12200937;28;20059;-78
2021/05/19 13:15:45;;;;;;;6.53;4.30;;;14.60;99.90;;;;;;12201336;28;20523;-79
2021/05/19 13:21:51;;;;;;;8.43;4.18;;;14.80;99.90;;;;;;12208088;28;20408;-79
2021/05/19 13:27:54;;;;;;;7.45;4.78;;;14.30;99.90;;;;;;12207816;28;20056;-79
2021/05/19 13:34:07;;;;;;;7.63;4.43;;;14.60;99.90;;;;;;12209422;28;20067;-80
2021/05/19 13:40:09;;;;;;;7.55;4.80;;;14.50;99.90;;;;;;12209000;28;20063;-79
2021/05/19 13:46:13;;;;;;;7.25;4.50;;;14.20;99.90;;;;;;12210131;28;20135;-79
2021/05/19 13:52:15;;;;;;;7.70;4.30;;;14.20;99.90;;;;;;12208162;28;20526;-79
2021/05/19 13:58:17;;;;;;;7.30;4.32;;;13.90;99.90;;;;;;12186347;28;578796;-79
2021/05/19 14:04:19;;;;;;;8.30;4.18;;;14.00;99.90;;;;;;12220358;28;20424;-79
2021/05/19 14:10:24;;;;;;;7.07;4.07;;;14.30;99.90;;;;;;12203406;28;20101;-79
2021/05/19 14:29:06;;;;;;;9.50;6.00;;;15.70;99.90;;;;;;12201548;28;20059;-79
2021/05/19 14:35:19;;;;;;;10.88;7.00;;;16.10;99.90;;;;;;12207725;28;20067;-79
2021/05/19 14:54:18;;;;;;;8.50;5.18;;;15.30;99.90;;;;;;12208724;28;20051;-80
2021/05/19 15:00:25;;;;;;;6.40;3.85;;;14.80;99.90;;;;;;12203399;28;20086;-80
2021/05/19 15:06:31;;;;;;;6.38;3.38;;;13.90;99.90;;;;;;12205496;28;20068;-80
2021/05/19 15:12:33;;;;;;;6.60;3.40;;;12.70;99.90;;;;;;12209416;28;20042;-79
2021/05/19 15:18:35;;;;;;;6.70;3.92;;;12.00;99.90;;;;;;12206596;28;20079;-79
2021/05/19 15:24:37;;;;;;;6.60;4.35;;;11.70;99.90;;;;;;12210111;28;20039;-79
2021/05/19 15:30:39;;;;;;;7.35;5.05;;;11.40;99.90;;;;;;12201238;28;20056;-79
2021/05/19 15:36:45;;;;;;;7.68;5.15;;;11.10;99.90;;;;;;12207343;28;20118;-81
2021/05/19 15:42:47;;;;;;;8.40;5.40;;;11.10;99.90;;;;;;12200797;28;20162;-79
2021/05/19 15:48:48;;;;;;;5.70;4.65;;;11.00;99.90;;;;;;12205140;28;20424;-80
2021/05/19 15:54:51;;;;;;;8.10;5.15;;;11.10;99.90;;;;;;12208286;28;20078;-79
2021/05/19 16:00:53;;;;;;;6.40;4.18;;;11.60;99.90;;;;;;12204071;28;20098;-79
2021/05/19 16:06:57;;;;;;;4.47;3.90;;;11.90;99.90;;;;;;12212112;28;20048;-79
2021/05/19 16:12:59;;;;;;;7.00;4.35;;;12.10;99.90;;;;;;12211052;28;20561;-79
2021/05/19 16:19:01;;;;;;;4.53;3.40;;;12.20;99.90;;;;;;12202446;28;20138;-79
2021/05/19 16:25:04;;;;;;;8.32;4.30;;;12.40;99.90;;;;;;12203967;28;20127;-79
2021/05/19 16:31:13;;;;;;;41.13;8.23;;;12.50;99.90;;;;;;12209859;28;20185;-79
2021/05/19 16:37:15;;;;;;;5.07;3.40;;;12.80;99.90;;;;;;12222991;28;20075;-79
2021/05/19 16:43:17;;;;;;;14.35;4.22;;;13.00;99.90;;;;;;12220579;28;20048;-79
2021/05/19 16:49:23;;;;;;;83.13;8.18;;;12.80;99.90;;;;;;12215881;28;20067;-79
2021/05/19 16:55:25;;;;;;;11.50;4.20;;;12.50;99.90;;;;;;12211414;28;20067;-79
2021/05/19 17:07:44;;;;;;;6.57;3.70;;;11.80;99.90;;;;;;12221454;28;20075;-79
2021/05/19 17:13:46;;;;;;;7.70;3.97;;;11.60;99.90;;;;;;12213961;28;20083;-79
2021/05/19 17:19:50;;;;;;;6.20;3.45;;;11.50;99.90;;;;;;12211777;28;20047;-79
2021/05/19 17:25:52;;;;;;;5.47;2.75;;;11.40;99.90;;;;;;12209831;28;20128;-79
2021/05/19 17:31:54;;;;;;;10.40;3.42;;;11.40;99.90;;;;;;12212157;28;20059;-79
2021/05/19 17:37:55;;;;;;;7.15;3.58;;;11.30;99.90;;;;;;12212070;28;20520;-79
2021/05/19 17:43:57;;;;;;;4.82;3.67;;;11.20;99.90;;;;;;12210238;28;20369;-79
2021/05/19 17:49:59;;;;;;;5.25;3.80;;;11.40;99.90;;;;;;12206124;28;20464;-80
2021/05/19 17:56:01;;;;;;;4.55;3.28;;;11.60;99.90;;;;;;12217726;28;20056;-79
2021/05/19 18:02:03;;;;;;;5.50;3.90;;;11.60;99.90;;;;;;12212645;28;20102;-79
2021/05/19 18:08:05;;;;;;;6.63;2.95;;;11.60;99.90;;;;;;12209841;28;20087;-79
2021/05/19 18:14:09;;;;;;;5.50;3.67;;;11.50;99.90;;;;;;12213500;28;20131;-79
2021/05/19 18:20:11;;;;;;;6.93;3.20;;;11.50;99.90;;;;;;12211432;28;20055;-79
2021/05/19 18:26:13;;;;;;;6.38;3.50;;;11.30;99.90;;;;;;12211122;28;20345;-79
2021/05/19 18:32:23;;;;;;;8.98;3.92;;;10.90;99.90;;;;;;12217205;28;20048;-79
2021/05/19 18:38:29;;;;;;;6.93;4.68;;;10.70;99.90;;;;;;12209320;28;20070;-80
2021/05/19 18:44:30;;;;;;;7.15;4.88;;;10.60;99.90;;;;;;12215968;28;20067;-79
2021/05/19 18:50:33;;;;;;;8.80;5.25;;;10.40;99.90;;;;;;12211402;28;20063;-79
2021/05/19 18:56:35;;;;;;;8.82;5.55;;;10.40;99.90;;;;;;12259439;28;20071;-79
2021/05/19 19:02:37;;;;;;;10.40;5.28;;;10.40;99.90;;;;;;12239937;28;20059;-79
2021/05/19 19:08:39;;;;;;;7.95;5.38;;;10.40;99.90;;;;;;12210264;28;20477;-79
2021/05/19 19:14:41;;;;;;;7.93;5.85;;;10.30;99.90;;;;;;12197379;28;20127;-79
2021/05/19 19:20:43;;;;;;;7.95;5.03;;;10.40;99.90;;;;;;12208042;28;20585;-79
2021/05/19 19:26:46;;;;;;;8.27;5.53;;;10.30;99.90;;;;;;12202732;28;20055;-79
2021/05/19 19:32:48;;;;;;;7.43;5.40;;;10.30;99.90;;;;;;12211554;28;20049;-79
2021/05/19 19:38:51;;;;;;;6.53;5.05;;;10.40;99.90;;;;;;12211558;28;20464;-79
2021/05/19 19:44:53;;;;;;;6.78;5.05;;;10.40;99.90;;;;;;12199766;28;20075;-79
2021/05/19 19:50:59;;;;;;;7.68;4.60;;;10.20;99.90;;;;;;12200606;28;20102;-79
2021/05/19 19:57:01;;;;;;;5.20;3.17;;;10.10;99.90;;;;;;12212302;28;20115;-79
2021/05/19 20:03:08;;;;;;;5.95;3.10;;;9.90;99.90;;;;;;12210221;28;20043;-79
2021/05/19 20:09:10;;;;;;;7.43;3.03;;;10.00;99.90;;;;;;12226881;28;20056;-79
2021/05/19 20:15:13;;;;;;;4.55;2.72;;;10.10;99.90;;;;;;12222730;28;20134;-79
2021/05/19 20:21:15;;;;;;;6.00;3.08;;;10.10;99.90;;;;;;12218493;28;20046;-79
2021/05/19 20:27:17;;;;;;;5.32;3.28;;;10.10;99.90;;;;;;12216556;28;20073;-79
2021/05/19 20:33:19;;;;;;;5.88;3.88;;;10.00;99.90;;;;;;12213910;28;20611;-79
2021/05/19 20:39:25;;;;;;;5.65;4.45;;;9.90;99.90;;;;;;12214946;28;20146;-79
2021/05/19 20:45:27;;;;;;;7.15;4.28;;;9.80;99.90;;;;;;12293859;28;20052;-79
2021/05/19 20:51:29;;;;;;;5.07;3.42;;;10.00;99.90;;;;;;12212306;28;20048;-79
2021/05/19 20:57:31;;;;;;;5.63;3.92;;;10.00;99.90;;;;;;12207797;28;20079;-79
2021/05/19 21:03:33;;;;;;;6.97;3.95;;;9.90;99.90;;;;;;12209592;28;20093;-79
2021/05/19 21:09:35;;;;;;;6.22;3.47;;;10.00;99.90;;;;;;12215941;28;20091;-79
2021/05/19 21:15:37;;;;;;;7.80;3.58;;;9.90;99.90;;;;;;12212507;28;20630;-79
2021/05/19 21:21:46;;;;;;;5.60;3.72;;;9.90;99.90;;;;;;12213752;28;20052;-79
2021/05/19 21:27:48;;;;;;;5.25;3.70;;;9.80;99.90;;;;;;12214962;28;20078;-79
2021/05/19 21:33:50;;;;;;;6.38;3.65;;;9.90;99.90;;;;;;12206416;28;20174;-79
2021/05/19 21:39:51;;;;;;;8.30;3.67;;;9.90;99.90;;;;;;12202602;28;20646;-79
2021/05/19 21:45:53;;;;;;;5.65;3.72;;;9.80;99.90;;;;;;12206523;28;20122;-79
2021/05/19 21:51:55;;;;;;;6.32;4.03;;;9.90;99.90;;;;;;12206036;28;20588;-79
2021/05/19 21:57:57;;;;;;;7.43;4.40;;;9.70;99.90;;;;;;12206579;28;20098;-79
2021/05/19 22:03:59;;;;;;;5.68;4.22;;;9.60;99.90;;;;;;12214250;28;20496;-79
2021/05/19 22:10:03;;;;;;;7.85;3.88;;;9.80;99.90;;;;;;12216818;28;20052;-79
2021/05/19 22:16:16;;;;;;;6.63;4.00;;;9.90;99.90;;;;;;12207864;28;20465;-79
2021/05/19 22:22:43;;;;;;;6.85;4.43;;;9.70;99.90;;;;;;12212161;28;20768;-79
2021/05/19 22:28:52;;;;;;;7.28;4.88;;;9.40;99.90;;;;;;12213594;28;20098;-79
2021/05/19 22:34:54;;;;;;;7.20;4.95;;;9.20;99.90;;;;;;12209167;28;20107;-79
2021/05/19 22:40:56;;;;;;;7.65;5.18;;;9.10;99.90;;;;;;12215162;28;20489;-79
2021/05/19 22:46:58;;;;;;;7.07;5.10;;;9.00;99.90;;;;;;12210889;28;20048;-79
2021/05/19 22:53:00;;;;;;;7.18;4.95;;;9.00;99.90;;;;;;12206129;28;20083;-79
2021/05/19 22:59:02;;;;;;;10.90;5.65;;;9.00;99.90;;;;;;12207357;28;20107;-79
2021/05/19 23:05:08;;;;;;;7.68;5.78;;;9.10;99.90;;;;;;12210171;28;20075;-79
2021/05/19 23:11:10;;;;;;;10.45;6.63;;;9.10;99.90;;;;;;12202039;28;20047;-79
2021/05/19 23:17:12;;;;;;;8.77;6.32;;;9.10;99.90;;;;;;12204329;28;20075;-79
2021/05/19 23:23:15;;;;;;;9.27;7.07;;;9.20;99.90;;;;;;12198954;28;20067;-79
2021/05/19 23:29:17;;;;;;;9.43;6.35;;;9.20;99.90;;;;;;12214059;28;20052;-79
2021/05/19 23:35:19;;;;;;;11.93;7.28;;;9.20;99.90;;;;;;12209020;28;20044;-78
2021/05/19 23:41:21;;;;;;;9.88;7.55;;;9.20;99.90;;;;;;12205053;28;20131;-79
2021/05/19 23:47:24;;;;;;;9.80;6.38;;;9.20;99.90;;;;;;12212016;28;20666;-79
2021/05/19 23:53:25;;;;;;;13.48;7.03;;;9.20;99.90;;;;;;12207530;28;20087;-79
2021/05/19 23:59:27;;;;;;;11.02;7.43;;;9.50;99.90;;;;;;12281598;28;20090;-79
